ADDS METAR Data INFO
IDs: Format: Raw Decoded Include TAF

Data at: 1748 UTC 21 Oct 2017

PAOH 211656Z AUTO 10003KT 8SM OVC049 04/02 A2927 RMK AO2 SLP912 T00440022
PAOH 211556Z AUTO 09003KT 9SM OVC045 04/02 A2929 RMK AO2 SLP920 T00390022
PAOH 211456Z AUTO 09007KT 10SM OVC032 04/02 A2932 RMK AO2 RAB1358E26 SLP930 P0000 60000 T00440022 58028
PAOH 211356Z AUTO 08007KT 10SM OVC031 04/02 A2935 RMK AO2 RAE27 SLP941 P0000 T00440022
PAOH 211328Z AUTO 09006KT 10SM BKN031 OVC120 04/02 A2937 RMK AO2 RAE27 P0000
PAOH 211256Z AUTO 08008KT 10SM -RA OVC025 04/02 A2938 RMK AO2 SLP951 P0000 T00440022
PAOH 211156Z AUTO 07007KT 10SM -RA OVC027 04/02 A2940 RMK AO2 RAB14 SLP958 P0000 60000 70003 T00440022 10050 20000 58011
PAOH 211056Z AUTO 07009KT 10SM OVC027 04/02 A2942 RMK AO2 RAB20E56 SLP963 P0000 T00440017
PAOH 210956Z AUTO 08006KT 10SM BKN027 OVC033 03/02 A2944 RMK AO2 SLP969 T00330017
PAOH 210953Z AUTO 07006KT 10SM BKN027 OVC033 03/02 A2944 RMK AO2
PAOH 210923Z AUTO 06008KT 10SM SCT028 BKN065 OVC110 03/01 A2944 RMK AO2
PAOH 210856Z AUTO 06007KT 10SM BKN028 BKN033 OVC065 03/02 A2944 RMK AO2 SLP971 T00330022 56004
PAOH 210837Z AUTO 07006KT 10SM BKN028 BKN035 BKN120 02/02 A2945 RMK AO2 FZRANO
PAOH 210756Z AUTO 00000KT 10SM FEW029 00/00 A2945 RMK AO2 SLP972 T00000000 400670000 FZRANO
PAOH 210708Z AUTO 00000KT 10SM BKN026 OVC060 01/00 A2945 RMK AO2 FZRANO
PAOH 210656Z AUTO 11004KT 10SM SCT028 BKN060 OVC080 01/00 A2945 RMK AO2 SLP975 T00060000 FZRANO
PAOH 210556Z AUTO 00000KT 10SM FEW043 BKN065 01/01 A2946 RMK AO2 RAE00B22E51UPB00E22 SLP977 P0000 60000 T00110006 10061 20006 50005 FZRANO
PAOH 210456Z AUTO 00000KT 10SM -RA FEW034 BKN049 OVC060 01/01 A2946 RMK AO2 RAB34 SLP978 P0000 T00110006 FZRANO
PAOH 210449Z AUTO 00000KT 10SM -RA FEW042 BKN049 OVC060 01/01 A2946 RMK AO2 RAB34 P0000 FZRANO
PAOH 210441Z AUTO 06003KT 2SM -RA BR FEW042 BKN049 OVC060 01/01 A2946 RMK AO2 RAB34 P0000 FZRANO
PAOH 210356Z AUTO 00000KT 10SM FEW045 SCT120 01/00 A2945 RMK AO2 SLP973 T00060000 FZRANO
PAOH 210256Z AUTO 00000KT 7SM CLR 02/01 A2945 RMK AO2 SLP972 T00170011 53012 FZRANO
PAOH 210056Z AUTO 00000KT 10SM OVC100 06/03 A2942 RMK AO2 SLP963 T00560033
PAOH 202356Z AUTO 00000KT 10SM FEW060 SCT070 BKN085 05/02 A2941 RMK AO2 SLP960 60002 T00500022 10067 20044 52014
PAOH 202256Z AUTO 00000KT 10SM FEW036 SCT045 OVC060 06/02 A2940 RMK AO2 RAB37E51 SLP955 P0000 T00610017
PAOH 202156Z AUTO 29005KT 10SM SCT036 BKN046 OVC110 06/03 A2938 RMK AO2 RAE05 SLP950 P0000 T00610028
PAOH 202056Z AUTO 00000KT 10SM -RA SCT039 BKN050 OVC065 05/03 A2937 RMK AO2 SLP946 P0000 60002 T00500028 51017
PAOH 201956Z AUTO 00000KT 10SM -RA SCT025 OVC036 05/03 A2936 RMK AO2 RAB24 SLP942 P0002 T00500028
PAOH 201829Z AUTO 00000KT 10SM BKN033 BKN050 OVC060 04/04 A2933 RMK AO2 RAE22 P0000
PAOH 201822Z AUTO 15004KT 10SM BKN029 BKN036 OVC055 04/04 A2933 RMK AO2 RAE22 P0000
PAOH 201756Z AUTO 00000KT 10SM -RA FEW026 BKN039 OVC060 04/04 A2932 RMK AO2 RAB30 SLP929 P0000 60001 T00440039 10050 20022 53022
PAOH 201656Z AUTO 00000KT 10SM SCT080 OVC100 03/03 A2930 RMK AO2 SLP922 T00280028
PAOH 201629Z AUTO 00000KT 10SM FEW001 OVC100 03/02 A2928 RMK AO2
PAOH 201556Z AUTO 09004KT 10SM BKN055 OVC100 03/02 A2927 RMK AO2 SLP913 P0001 T00280022
PAOH 201456Z AUTO 00000KT 10SM FEW055 OVC110 04/04 A2925 RMK AO2 SLP907 T00440039 51022
PAOH 201356Z AUTO 00000KT 7SM FEW060 OVC095 04/03 A2924 RMK AO2 SLP901 T00390033
PAOH 201256Z AUTO 00000KT 10SM SCT030 OVC095 04/04 A2921 RMK AO2 SLP894 T00440039
PAOH 201248Z AUTO 00000KT 10SM BKN030 OVC095 05/04 A2921 RMK AO2
PAOH 201224Z AUTO 00000KT 10SM BKN028 OVC100 04/04 A2920 RMK AO2
PAOH 201216Z AUTO 00000KT 10SM SCT028 OVC100 04/04 A2920 RMK AO2
PAOH 201205Z AUTO 00000KT 10SM BKN028 OVC090 04/04 A2919 RMK AO2
PAOH 201156Z AUTO 00000KT 10SM SCT028 OVC090 04/04 A2919 RMK AO2 RAE30 SLP885 P0000 60002 70003 T00440044 10056 20044 51018
PAOH 201056Z AUTO 35003KT 10SM -RA SCT028 BKN040 OVC055 05/04 A2918 RMK AO2 RAE12B35 SLP881 P0000 T00500044
PAOH 201016Z AUTO 00000KT 10SM FEW027 OVC035 04/04 A2917 RMK AO2 RAE12 P0000
PAOH 200956Z AUTO 00000KT 10SM -RA BKN027 OVC036 05/05 A2916 RMK AO2 RAB03 SLP876 P0001 T00500050
PAOH 200856Z AUTO 00000KT 10SM FEW016 OVC029 05/04 A2914 RMK AO2 RAE33 SLP868 P0000 60001 T00500044 53012
PAOH 200756Z AUTO 06006KT 10SM -RA OVC025 06/04 A2911 RMK AO2 SLP860 P0001 T00560044 400611006
PAOH 200656Z AUTO 08008KT 10SM -RA BKN018 OVC024 05/04 A2910 RMK AO2 SLP855 P0000 T00500044
PAOH 200634Z AUTO 08009KT 10SM -RA SCT013 BKN018 OVC024 05/04 A2910 RMK AO2 P0000
PAOH 200613Z AUTO 09007KT 8SM -RA BKN013 OVC018 05/04 A2910 RMK AO2 P0000
PAOH 200556Z AUTO 10008KT 10SM -RA BKN016 BKN028 OVC060 05/04 A2910 RMK AO2 SLP856 P0001 60001 T00500044 10056 20050 53007